createdAt,value
2022-10-13T00:00:53.041Z,10.60
2022-10-13T00:03:57.234Z,10.60
2022-10-13T00:07:01.799Z,10.60
2022-10-13T00:10:06.898Z,10.50
2022-10-13T00:13:12.591Z,10.50
2022-10-13T00:16:19.477Z,10.40
2022-10-13T00:19:23.905Z,10.40
2022-10-13T00:22:28.362Z,10.40
2022-10-13T00:25:32.765Z,10.30
2022-10-13T00:28:38.348Z,10.30
2022-10-13T00:31:42.877Z,10.30
2022-10-13T00:34:47.362Z,10.30
2022-10-13T00:37:53.722Z,10.30
2022-10-13T00:40:58.191Z,10.30
2022-10-13T00:44:04.121Z,10.30
2022-10-13T00:47:09.086Z,10.30
2022-10-13T00:50:19.467Z,10.20
2022-10-13T00:53:30.598Z,10.30
2022-10-13T00:56:37.364Z,10.20
2022-10-13T00:59:42.443Z,10.20
2022-10-13T01:02:46.513Z,10.20
2022-10-13T01:05:55.794Z,10.20
2022-10-13T01:09:00.059Z,10.10
2022-10-13T01:12:22.862Z,10.10
2022-10-13T01:15:30.503Z,10.00
2022-10-13T01:18:45.786Z,10.00
2022-10-13T01:21:56.750Z,9.90
2022-10-13T01:25:25.438Z,9.90
2022-10-13T01:28:44.769Z,9.80
2022-10-13T01:32:07.278Z,9.70
2022-10-13T01:35:29.940Z,9.70
2022-10-13T01:39:06.955Z,9.60
2022-10-13T01:42:25.981Z,9.50
2022-10-13T01:45:44.684Z,9.50
2022-10-13T01:48:53.620Z,9.40
2022-10-13T01:52:03.234Z,9.40
2022-10-13T01:55:10.296Z,9.30
2022-10-13T01:58:14.836Z,9.30
2022-10-13T02:01:57.114Z,9.30
2022-10-13T02:05:08.120Z,9.30
2022-10-13T02:08:32.766Z,9.20
2022-10-13T02:11:41.670Z,9.10
2022-10-13T02:14:46.944Z,9.20
2022-10-13T02:17:52.610Z,9.20
2022-10-13T02:20:57.589Z,9.20
2022-10-13T02:24:03.691Z,9.20
2022-10-13T02:27:08.702Z,9.20
2022-10-13T02:30:22.532Z,9.20
2022-10-13T02:33:27.034Z,9.20
2022-10-13T02:36:31.455Z,9.20
2022-10-13T02:39:35.594Z,9.20
2022-10-13T02:42:40.237Z,9.20
2022-10-13T02:45:44.626Z,9.20
2022-10-13T02:48:49.058Z,9.20
2022-10-13T02:51:54.009Z,9.20
2022-10-13T02:54:58.283Z,9.20
2022-10-13T02:58:02.911Z,9.20
2022-10-13T03:01:13.219Z,9.20
2022-10-13T03:04:17.385Z,9.10
2022-10-13T03:07:21.947Z,9.10
2022-10-13T03:10:26.934Z,9.10
2022-10-13T03:13:32.483Z,9.10
2022-10-13T03:16:43.929Z,9.10
2022-10-13T03:19:48.349Z,9.10
2022-10-13T03:22:55.713Z,9.10
2022-10-13T03:26:00.097Z,9.10
2022-10-13T03:29:04.703Z,9.00
2022-10-13T03:32:09.793Z,9.00
2022-10-13T03:35:14.282Z,9.00
2022-10-13T03:38:18.614Z,9.00
2022-10-13T03:41:22.969Z,9.00
2022-10-13T03:44:27.083Z,9.00
2022-10-13T03:47:31.561Z,9.00
2022-10-13T03:50:37.617Z,9.00
2022-10-13T03:53:42.119Z,8.90
2022-10-13T03:56:46.255Z,8.90
2022-10-13T03:59:51.498Z,8.80
2022-10-13T04:02:55.590Z,8.90
2022-10-13T04:06:02.103Z,8.90
2022-10-13T04:09:06.629Z,8.90
2022-10-13T04:12:10.761Z,8.90
2022-10-13T04:15:15.269Z,9.00
2022-10-13T04:18:20.034Z,9.00
2022-10-13T04:21:25.143Z,9.00
2022-10-13T04:24:29.216Z,9.10
2022-10-13T04:27:34.142Z,9.10
2022-10-13T04:30:38.505Z,9.10
2022-10-13T04:33:44.345Z,9.10
2022-10-13T04:36:51.135Z,9.10
2022-10-13T04:39:55.523Z,9.10
2022-10-13T04:43:00.021Z,9.10
2022-10-13T04:46:10.549Z,9.20
2022-10-13T04:49:16.557Z,9.10
2022-10-13T04:52:21.449Z,9.20
2022-10-13T04:55:27.315Z,9.10
2022-10-13T04:58:32.498Z,9.20
2022-10-13T05:01:38.677Z,9.10
2022-10-13T05:04:45.785Z,9.10
2022-10-13T05:07:50.367Z,9.20
2022-10-13T05:11:00.509Z,9.10
2022-10-13T05:14:04.704Z,9.20
2022-10-13T05:17:09.362Z,9.10
2022-10-13T05:20:14.295Z,9.20
2022-10-13T05:23:18.603Z,9.20
2022-10-13T05:26:28.677Z,9.20
2022-10-13T05:29:33.345Z,9.10
2022-10-13T05:32:37.467Z,9.10
2022-10-13T05:35:42.060Z,9.10
2022-10-13T05:38:53.466Z,9.20
2022-10-13T05:41:57.824Z,9.10
2022-10-13T05:45:02.418Z,9.10
2022-10-13T05:48:07.238Z,9.10
2022-10-13T05:51:16.152Z,9.20
2022-10-13T05:54:30.219Z,9.20
2022-10-13T05:57:38.270Z,9.30
2022-10-13T06:00:44.068Z,9.30
2022-10-13T06:03:49.987Z,9.40
2022-10-13T06:06:54.242Z,9.30
2022-10-13T06:09:59.217Z,9.40
2022-10-13T06:13:03.501Z,9.30
2022-10-13T06:16:07.798Z,9.40
2022-10-13T06:19:12.157Z,9.40
2022-10-13T06:22:16.760Z,9.50
2022-10-13T06:25:22.778Z,9.50
2022-10-13T06:28:27.643Z,9.60
2022-10-13T06:31:32.033Z,9.70
2022-10-13T06:34:36.667Z,9.70
2022-10-13T06:37:41.262Z,9.80
2022-10-13T06:40:48.323Z,9.80
2022-10-13T06:43:53.100Z,9.90
2022-10-13T06:46:58.740Z,9.90
2022-10-13T06:50:03.445Z,9.90
2022-10-13T06:53:08.033Z,10.00
2022-10-13T06:56:12.314Z,10.10
2022-10-13T06:59:16.616Z,10.20
2022-10-13T07:02:23.371Z,10.30
2022-10-13T07:05:28.184Z,10.50
2022-10-13T07:08:34.041Z,10.60
2022-10-13T07:11:38.849Z,10.70
2022-10-13T07:14:43.965Z,11.10
2022-10-13T07:17:48.401Z,11.20
2022-10-13T07:20:52.878Z,11.10
2022-10-13T07:23:57.323Z,11.20
2022-10-13T07:27:07.602Z,11.50
2022-10-13T07:30:13.134Z,11.60
2022-10-13T07:33:18.152Z,11.70
2022-10-13T07:36:22.724Z,11.90
2022-10-13T07:39:28.258Z,12.20
2022-10-13T07:42:33.126Z,12.20
2022-10-13T07:45:37.674Z,12.20
2022-10-13T07:48:42.114Z,12.30
2022-10-13T07:51:46.702Z,12.60
2022-10-13T07:54:52.009Z,12.60
2022-10-13T07:57:56.246Z,12.60
2022-10-13T08:01:01.819Z,12.70
2022-10-13T08:04:07.532Z,12.70
2022-10-13T08:07:12.098Z,12.80
2022-10-13T08:10:16.735Z,13.20
2022-10-13T08:13:21.502Z,13.60
2022-10-13T08:16:25.577Z,13.60
2022-10-13T08:19:30.641Z,14.00
2022-10-13T08:22:35.010Z,14.20
2022-10-13T08:25:41.680Z,14.20
2022-10-13T08:29:02.897Z,14.40
2022-10-13T08:32:12.329Z,14.70
2022-10-13T08:35:17.246Z,14.70
2022-10-13T08:38:21.615Z,14.50
2022-10-13T08:41:30.610Z,14.50
2022-10-13T08:48:21.035Z,14.30
2022-10-13T08:51:26.037Z,14.10
2022-10-13T08:54:30.490Z,14.10
2022-10-13T08:57:35.125Z,14.30
2022-10-13T09:00:39.296Z,14.40
2022-10-13T09:04:12.082Z,14.30
2022-10-13T09:07:20.577Z,13.80
2022-10-13T09:10:25.320Z,13.80
2022-10-13T09:13:29.807Z,13.60
2022-10-13T09:16:39.753Z,13.50
2022-10-13T09:20:23.150Z,13.50
2022-10-13T09:23:27.879Z,13.50
2022-10-13T09:26:38.054Z,13.50
2022-10-13T09:29:43.643Z,13.50
2022-10-13T09:32:50.730Z,13.40
2022-10-13T09:36:02.160Z,13.50
2022-10-13T09:39:15.748Z,13.40
2022-10-13T09:42:30.237Z,13.50
